Latest Weather Observations for Snowtown

IDS60801

Issued at 11:31 pm CDT Wednesday 29 March 2017 (issued every 30 minutes, with the page automatically refreshed every 10 minutes)

About weather observations | Map of weather stations | Latest weather observations for SA | Other Formats
Station Details ID: 021133 Name: RAYVILLE PARK Lat: -33.77 Lon: 138.22 Height: 109.1 m
Data from the previous 72 hours. | See also: Recent months at Snowtown
Date/Time
CDT
Temp
°C
App
Temp
°C
Dew
Point
°C
Rel
Hum
%
Delta-T
°C
Wind Press
QNH
hPa
Press
MSL
hPa
Rain since
9am
mm
Dir  Spd
km/h
Gust
km/h
Spd
kts
Gust
kts
29/11:30pm 11.5 7.6 7.0 74 2.2 SSW 17 26 9 14 1018.6 1018.3 0.0
29/11:00pm 10.3 7.4 6.6 78 1.7 SW 11 15 6 8 1018.6 1018.3 0.0
29/10:30pm 11.7 8.7 7.6 76 2.0 SSW 13 19 7 10 1018.5 1018.2 0.0
29/10:00pm 12.5 8.7 9.1 80 1.7 SW 19 24 10 13 1018.2 1017.9 0.0
29/09:30pm 13.0 10.4 9.3 78 1.9 SSW 13 15 7 8 1017.9 1017.6 0.0
29/09:00pm 13.3 9.6 9.5 78 1.9 SSW 19 24 10 13 1017.3 1017.0 0.0
29/08:38pm 14.5 9.1 9.5 72 2.6 SW 28 46 15 25 1017.1 1016.8 0.0
29/08:30pm 14.7 9.0 9.7 72 2.6 SW 30 44 16 24 1016.8 1016.5 0.0
29/08:18pm 14.9 9.7 10.3 74 2.4 SW 28 44 15 24 1016.3 1016.0 0.0
29/08:00pm 14.8 12.2 11.9 83 1.6 SW 17 20 9 11 1015.9 1015.6 0.0
29/07:30pm 14.5 11.6 12.2 86 1.3 SW 19 22 10 12 1015.5 1015.1 0.0
29/07:04pm 15.9 11.0 11.3 74 2.5 WSW 28 48 15 26 1015.1 1014.7 0.0
29/07:00pm 15.7 11.0 10.7 72 2.7 WSW 26 39 14 21 1014.9 1014.5 0.0
29/06:30pm 16.9 12.1 10.3 65 3.5 SW 26 35 14 19 1014.3 1013.9 0.0
29/06:00pm 17.5 11.3 11.5 68 3.3 SW 35 48 19 26 1013.9 1013.5 0.0
29/05:30pm 18.3 11.6 11.1 63 3.9 SW 37 48 20 26 1013.4 1013.0 0.0
29/05:00pm 19.0 13.5 11.8 63 4.0 SSW 32 41 17 22 1012.9 1012.5 0.0
29/04:30pm 19.6 13.8 12.8 65 3.9 SSW 35 46 19 25 1013.0 1012.6 0.0
29/04:00pm 18.3 11.1 13.0 71 3.0 SSW 43 54 23 29 1012.5 1012.2 0.0
29/03:30pm 21.3 16.5 14.7 66 3.9 WSW 33 50 18 27 1011.7 1011.4 0.0
29/03:24pm 21.5 17.2 16.9 75 2.8 WSW 35 57 19 31 1011.6 1011.3 0.0
29/03:07pm 23.4 16.4 11.1 46 6.9 W 39 65 21 35 1011.3 1011.0 0.0
29/03:00pm 26.0 19.6 10.6 38 8.7 W 35 50 19 27 1011.2 1010.9 0.0
29/02:46pm 25.6 19.4 11.4 41 8.1 W 35 54 19 29 1011.4 1011.1 0.0
29/02:30pm 25.5 18.8 10.9 40 8.2 W 37 52 20 28 1011.7 1011.4 0.0
29/02:00pm 24.7 17.5 10.6 41 7.9 W 39 52 21 28 1012.2 1011.9 0.0
29/01:55pm 25.1 19.1 10.2 39 8.3 W 32 50 17 27 1012.2 1011.9 0.0
29/01:30pm 22.2 14.6 9.0 43 7.1 W 39 52 21 28 1012.5 1012.2 0.0
29/01:02pm 24.1 17.9 10.0 41 7.8 W 33 52 18 28 1012.4 1012.1 0.0
29/01:00pm 23.3 17.1 10.0 43 7.3 W 33 48 18 26 1012.5 1012.2 0.0
29/12:51pm 24.0 18.8 10.3 42 7.6 W 28 48 15 26 1012.4 1012.1 0.0
29/12:30pm 23.0 18.7 10.8 46 6.8 W 24 43 13 23 1012.6 1012.3 0.0
29/12:00pm 23.5 19.8 11.5 47 6.8 W 22 39 12 21 1012.9 1012.5 0.0
29/11:30am 22.2 18.4 11.0 49 6.2 WNW 22 32 12 17 1013.1 1012.7 0.0
29/11:00am 22.0 18.7 10.8 49 6.2 WNW 19 32 10 17 1013.1 1012.7 0.0
29/10:30am 20.6 17.5 12.3 59 4.7 WNW 20 32 11 17 1013.3 1012.9 0.0
29/10:00am 19.3 15.9 12.6 65 3.8 WNW 22 30 12 16 1013.3 1012.9 0.0
29/09:30am 19.4 17.2 13.3 68 3.5 WNW 17 22 9 12 1013.1 1012.7 0.0
29/09:00am 16.0 14.9 11.8 76 2.3 N 9 13 5 7 1013.1 1012.7 0.0
29/08:30am 12.0 9.3 9.0 82 1.5 N 13 15 7 8 1013.0 1012.6 0.0
29/08:00am 9.5 6.5 7.8 89 0.8 N 13 17 7 9 1012.6 1012.3 0.0
29/07:30am 9.9 7.1 8.7 92 0.6 N 13 15 7 8 1012.5 1012.2 0.0
29/07:00am 9.7 6.8 8.0 89 0.8 N 13 15 7 8 1012.3 1012.0 0.0
29/06:30am 9.6 5.8 7.4 86 1.1 N 17 19 9 10 1012.1 1011.8 0.0
29/06:00am 9.6 5.5 7.7 88 0.9 N 19 20 10 11 1011.9 1011.6 0.0
29/05:30am 11.3 9.8 10.5 95 0.4 W 9 13 5 7 1012.0 1011.7 0.0
29/05:00am 10.8 9.1 9.7 93 0.6 WSW 9 13 5 7 1011.8 1011.5 0.0
29/04:30am 11.7 11.2 10.6 93 0.6 WSW 4 9 2 5 1011.7 1011.4 0.0
29/04:00am 12.0 10.2 10.9 93 0.6 WSW 11 13 6 7 1011.9 1011.6 0.0
29/03:30am 11.5 10.3 10.2 92 0.7 WSW 7 11 4 6 1012.0 1011.7 0.0
29/03:00am 10.8 9.0 9.4 91 0.7 SW 9 13 5 7 1012.3 1012.0 0.0
29/02:30am 9.5 9.0 7.8 89 0.8 CALM 0 0 0 0 1012.4 1012.1 0.0
29/02:00am 9.8 9.2 7.4 85 1.1 CALM 0 0 0 0 1012.6 1012.3 0.0
29/01:30am 9.7 8.6 7.1 84 1.2 SW 2 6 1 3 1012.9 1012.5 0.0
29/01:00am 12.3 10.7 8.2 76 2.0 SW 6 9 3 5 1012.9 1012.5 0.0
29/12:30am 13.3 10.6 9.0 75 2.2 SW 13 15 7 8 1013.2 1012.8 0.0
29/12:00am 12.6 10.0 7.9 73 2.3 SW 11 15 6 8 1013.3 1012.9 0.0
 
Date/Time
CDT
Temp
°C
App
Temp
°C
Dew
Point
°C
Rel
Hum
%
Delta-T
°C
Wind Press
QNH
hPa
Press
MSL
hPa
Rain since
9am
mm
Dir  Spd
km/h
Gust
km/h
Spd
kts
Gust
kts
28/11:30pm 14.1 11.1 7.9 66 3.1 SSW 13 17 7 9 1013.6 1013.2 0.0
28/11:00pm 14.8 12.0 8.7 67 3.1 SSW 13 17 7 9 1013.9 1013.5 0.0
28/10:30pm 13.4 10.8 7.6 68 2.9 SW 11 15 6 8 1014.0 1013.6 0.0
28/10:00pm 13.4 11.4 7.0 65 3.1 NW 7 9 4 5 1013.8 1013.4 0.0
28/09:30pm 13.3 10.9 7.1 66 3.0 NW 9 13 5 7 1013.7 1013.3 0.0
28/09:00pm 14.7 11.3 7.5 62 3.6 NW 15 17 8 9 1013.6 1013.2 0.0
28/08:30pm 14.8 12.9 6.6 58 4.0 W 6 7 3 4 1013.4 1013.0 0.0
28/08:00pm 16.1 12.8 6.3 52 4.8 W 13 15 7 8 1013.1 1012.7 0.0
28/07:30pm 17.2 13.7 5.5 46 5.7 W 13 15 7 8 1013.0 1012.6 0.0
28/07:00pm 21.2 18.2 3.9 32 8.4 W 9 13 5 7 1012.9 1012.5 0.0
28/06:30pm 23.3 19.1 3.8 28 9.6 W 15 20 8 11 1013.0 1012.6 0.0
28/06:00pm 24.3 19.6 3.0 25 10.4 WNW 17 24 9 13 1013.0 1012.6 0.0
28/05:30pm 24.9 19.9 3.5 25 10.6 WNW 19 30 10 16 1013.1 1012.7 0.0
28/05:00pm 25.2 21.3 7.3 32 9.5 W 17 22 9 12 1013.0 1012.6 0.0
28/04:30pm 25.3 21.8 8.7 35 9.0 WNW 17 22 9 12 1013.2 1012.8 0.0
28/04:00pm 25.4 22.4 9.3 36 8.8 WNW 15 22 8 12 1013.3 1012.9 0.0
28/03:30pm 24.9 21.6 9.6 38 8.4 NNW 17 24 9 13 1013.4 1013.0 0.0
28/03:00pm 25.2 21.5 9.5 37 8.6 NW 19 30 10 16 1013.8 1013.4 0.0
28/02:30pm 25.2 22.2 9.1 36 8.8 NW 15 26 8 14 1014.2 1013.8 0.0
28/02:00pm 25.4 22.9 8.4 34 9.2 WSW 11 22 6 12 1014.5 1014.1 0.0
28/01:30pm 24.0 21.5 8.0 36 8.5 WNW 11 22 6 12 1015.1 1014.7 0.0
28/01:00pm 23.5 21.3 9.5 41 7.6 WSW 11 17 6 9 1015.6 1015.2 0.0
28/12:30pm 22.9 20.7 9.3 42 7.4 W 11 19 6 10 1016.1 1015.8 0.0
28/12:00pm 22.9 21.2 10.0 44 7.1 WNW 9 22 5 12 1016.6 1016.3 0.0
28/11:30am 22.1 19.9 9.3 44 6.9 W 11 19 6 10 1016.9 1016.6 0.0
28/11:00am 20.1 18.4 9.7 51 5.6 W 9 15 5 8 1017.2 1016.9 0.0
28/10:30am 20.2 19.0 10.3 53 5.4 NNE 7 13 4 7 1017.2 1016.9 0.0
28/10:00am 19.2 17.3 10.5 57 4.7 NNE 11 17 6 9 1017.3 1017.0 0.0
28/09:30am 18.6 16.1 9.7 56 4.7 NNE 13 17 7 9 1017.4 1017.1 0.0
28/09:00am 17.1 15.1 10.0 63 3.8 NW 11 13 6 7 1017.1 1016.8 0.0
28/08:30am 13.9 13.1 10.9 82 1.6 NW 6 7 3 4 1016.9 1016.6 0.0
28/08:00am 12.4 10.8 10.1 86 1.2 NW 9 11 5 6 1016.7 1016.4 0.0
28/07:30am 11.4 9.6 9.3 87 1.1 NW 9 9 5 5 1016.6 1016.3 0.0
28/07:00am 12.1 10.4 10.0 87 1.1 NW 9 11 5 6 1016.6 1016.3 0.0
28/06:30am 12.3 11.0 10.0 86 1.2 NW 7 11 4 6 1016.6 1016.3 0.0
28/06:00am 11.5 9.3 9.4 87 1.1 NW 11 13 6 7 1016.5 1016.2 0.0
28/05:30am 12.1 10.1 10.2 88 1.0 NW 11 13 6 7 1016.3 1016.0 0.0
28/05:00am 10.2 7.8 8.6 90 0.8 NW 11 13 6 7 1016.1 1015.8 0.0
28/04:30am 8.6 5.8 7.1 90 0.7 NW 11 13 6 7 1016.1 1015.8 0.0
28/04:00am 7.9 5.9 6.4 90 0.7 SW 6 7 3 4 1016.1 1015.8 0.0
28/03:30am 9.0 8.2 6.6 85 1.1 CALM 0 0 0 0 1016.2 1015.9 0.0
28/03:00am 9.5 8.9 7.4 87 1.0 CALM 0 0 0 0 1016.5 1016.2 0.0
28/02:30am 10.3 9.6 7.0 80 1.6 CALM 0 7 0 4 1016.6 1016.3 0.0
28/02:00am 11.2 7.8 9.1 87 1.1 SW 17 24 9 13 1016.3 1016.0 0.0
28/01:30am 9.5 7.1 6.9 84 1.2 SW 9 11 5 6 1017.1 1016.8 0.0
28/01:00am 10.6 9.5 7.1 79 1.7 SW 2 7 1 4 1017.4 1017.1 0.0
28/12:30am 10.9 8.8 6.6 75 2.0 SW 7 11 4 6 1017.5 1017.2 0.0
28/12:00am 11.4 9.6 7.9 79 1.7 SW 7 9 4 5 1017.6 1017.3 0.0
 
Date/Time
CDT
Temp
°C
App
Temp
°C
Dew
Point
°C
Rel
Hum
%
Delta-T
°C
Wind Press
QNH
hPa
Press
MSL
hPa
Rain since
9am
mm
Dir  Spd
km/h
Gust
km/h
Spd
kts
Gust
kts
27/11:30pm 10.9 8.6 7.4 79 1.7 SW 9 9 5 5 1017.5 1017.2 0.0
27/11:00pm 12.0 9.5 8.3 78 1.8 SW 11 13 6 7 1017.3 1017.0 0.0
27/10:30pm 12.6 10.5 8.3 75 2.1 WSW 9 11 5 6 1017.2 1016.9 0.0
27/10:00pm 12.9 11.0 7.6 70 2.6 WSW 7 7 4 4 1017.0 1016.7 0.0
27/09:30pm 13.3 11.3 6.4 63 3.3 WSW 6 7 3 4 1016.9 1016.6 0.0
27/09:00pm 13.6 11.5 6.5 62 3.4 SW 7 9 4 5 1016.5 1016.2 0.0
27/08:30pm 14.8 12.5 5.9 55 4.3 SW 7 9 4 5 1016.2 1015.9 0.0
27/08:00pm 15.3 12.2 5.5 52 4.7 SW 11 15 6 8 1016.0 1015.7 0.0
27/07:30pm 19.3 16.0 6.4 43 6.5 SSW 13 20 7 11 1015.7 1015.4 0.0
27/07:00pm 21.0 16.3 5.0 35 7.9 SSW 19 26 10 14 1015.8 1015.5 0.0
27/06:30pm 22.2 17.0 5.6 34 8.3 SW 22 32 12 17 1015.5 1015.1 0.0
27/06:00pm 23.4 17.8 5.3 31 9.1 SW 24 32 13 17 1015.1 1014.7 0.0
27/05:30pm 23.9 18.7 5.3 30 9.4 SW 22 30 12 16 1014.9 1014.5 0.0
27/05:00pm 24.6 18.5 4.9 28 9.9 SW 26 35 14 19 1014.6 1014.2 0.0
27/04:30pm 24.8 18.3 4.5 27 10.2 SW 28 37 15 20 1014.6 1014.2 0.0
27/04:00pm 24.8 18.0 2.9 24 10.7 SW 28 39 15 21 1014.8 1014.4 0.0
27/03:30pm 25.5 19.3 6.2 29 10.0 SW 28 39 15 21 1014.6 1014.2 0.0
27/03:00pm 25.8 20.0 7.9 32 9.6 SW 28 39 15 21 1014.5 1014.1 0.0
27/02:30pm 26.1 20.5 7.2 30 10.0 SW 26 43 14 23 1014.7 1014.3 0.0
27/02:00pm 25.7 19.6 6.8 30 9.9 SW 28 41 15 22 1015.0 1014.6 0.0
27/01:30pm 24.8 18.6 7.9 34 9.0 WSW 30 43 16 23 1015.3 1014.9 0.0
27/01:00pm 25.0 19.5 7.6 33 9.2 WSW 26 35 14 19 1015.4 1015.0 0.0
27/12:30pm 24.2 18.9 9.8 40 7.9 SW 28 39 15 21 1015.5 1015.1 0.0
27/12:00pm 24.7 20.2 11.3 43 7.6 SW 26 41 14 22 1015.4 1015.0 0.0
27/11:30am 22.9 17.2 11.0 47 6.6 WSW 32 39 17 21 1015.4 1015.0 0.0
27/11:00am 22.9 18.5 11.6 49 6.4 SW 26 35 14 19 1015.2 1014.8 0.0
27/10:30am 24.5 20.0 12.5 47 6.9 SW 28 39 15 21 1014.9 1014.5 0.0
27/10:00am 23.3 19.6 13.8 55 5.6 WSW 26 35 14 19 1014.7 1014.3 0.0
27/09:30am 22.2 19.2 13.8 59 4.9 SW 22 32 12 17 1014.2 1013.8 0.0
27/09:00am 21.8 19.6 14.9 65 4.1 SW 20 28 11 15 1014.2 1013.8 0.0
27/08:30am 20.7 21.2 16.5 77 2.5 WSW 9 11 5 6 1013.7 1013.3 0.0
27/08:00am 19.3 19.5 16.7 85 1.6 WSW 11 13 6 7 1013.4 1013.0 0.0
27/07:30am 18.7 19.0 15.9 84 1.7 WSW 9 13 5 7 1013.0 1012.6 0.0
27/07:00am 20.0 18.9 16.4 80 2.2 SW 17 24 9 13 1012.1 1011.8 0.0
27/06:30am 20.6 19.0 16.6 78 2.4 SW 20 28 11 15 1011.3 1011.0 0.0
27/06:00am 21.3 19.9 17.1 77 2.6 SW 20 28 11 15 1011.3 1011.0 0.0
27/05:30am 21.5 19.5 17.3 77 2.6 SW 24 33 13 18 1010.6 1010.3 0.0
27/05:00am 21.7 20.9 18.1 80 2.3 SSE 19 30 10 16 1009.8 1009.5 0.0
27/04:40am 21.6 17.0 18.0 80 2.2 WSW 39 61 21 33 1008.8 1008.5 0.0
27/04:31am 21.8 14.4 18.0 79 2.4 W 54 72 29 39 1007.2 1006.8 0.0
27/04:30am 21.8 14.0 18.0 79 2.4 W 56 72 30 39 1007.2 1006.8 0.0
27/04:09am 22.2 14.3 17.8 76 2.7 W 56 76 30 41 1006.5 1006.1 0.0
27/04:00am 22.7 14.8 16.9 70 3.6 W 54 70 29 38 1006.3 1005.9 0.0
27/03:43am 23.9 17.6 16.2 62 4.7 W 44 63 24 34 1006.2 1005.8 0.0
27/03:30am 24.6 18.1 15.5 57 5.5 W 44 56 24 30 1006.4 1006.0 0.0
27/03:00am 27.7 20.3 12.5 39 8.9 W 43 69 23 37 1006.0 1005.6 0.0
27/02:55am 29.4 22.6 10.5 31 10.8 WNW 37 69 20 37 1006.0 1005.6 0.0
27/02:48am 31.8 25.1 7.5 22 13.4 NW 32 57 17 31 1006.1 1005.7 0.0
27/02:30am 29.3 22.3 6.0 23 12.4 N 32 37 17 20 1004.5 1004.1 0.0
27/02:00am 29.3 23.1 6.0 23 12.3 N 28 32 15 17 1005.0 1004.6 0.0
27/01:30am 28.9 23.4 5.7 23 12.2 N 24 30 13 16 1005.2 1004.8 0.0
27/01:20am 28.1 23.7 7.4 27 11.1 N 20 28 11 15 1005.3 1004.9 0.0
27/01:00am 22.5 18.1 7.5 38 7.8 N 20 22 11 12 1005.5 1005.1 0.0
27/12:30am 22.7 18.8 7.3 37 8.1 N 17 19 9 10 1005.7 1005.3 0.0
27/12:00am 23.2 21.5 8.5 39 7.9 NNW 7 11 4 6 1006.1 1005.7 0.0

Other Formats:

Comma delimited format used in spreadsheet applications
http://www.bom.gov.au/fwo/IDS60801/IDS60801.95670.axf

JavaScript Object Notation format (JSON) in row-major order
http://www.bom.gov.au/fwo/IDS60801/IDS60801.95670.json